Latest Weather Observations for McCluer Island

IDD60801

Issued at 8:31 am CST Wednesday 24 July 2024 (issued every 10 minutes, with the page automatically refreshed every 10 minutes)

About weather observations | Map of weather stations | Latest weather observations for NT | Other Formats
Station Details ID: 014274 Name: MCCLUER ISLAND Lat: -11.05 Lon: 132.98 Height: 1.4 m
Data from the previous 72 hours. | See also: Recent months at McCluer Island
Date/Time
CST
Temp
°C
App
Temp
°C
Dew
Point
°C
Rel
Hum
%
Delta-T
°C
Wind Press
QNH
hPa
Press
MSL
hPa
Rain since
9am
mm
Dir  Spd
km/h
Gust
km/h
Spd
kts
Gust
kts
24/08:30am 24.4 22.8 21.5 84 1.9 ESE 32 37 17 20 1013.5 1013.5 0.0
24/08:00am 24.3 22.7 21.6 85 1.8 ESE 32 35 17 19 1013.3 1013.3 0.0
24/07:30am 24.3 22.5 21.6 85 1.8 ESE 33 39 18 21 1013.0 1013.0 0.0
24/07:00am 24.1 22.2 21.4 85 1.8 ESE 33 39 18 21 1012.8 1012.8 0.0
24/06:30am 24.0 22.2 21.5 86 1.7 ESE 33 39 18 21 1012.5 1012.5 0.0
24/06:00am 24.2 21.9 21.3 84 1.9 E 35 41 19 22 1012.3 1012.3 0.0
24/05:30am 24.3 21.6 21.2 83 2.0 E 37 43 20 23 1012.2 1012.2 0.0
24/05:00am 24.2 22.0 21.5 85 1.8 ESE 35 41 19 22 1012.3 1012.3 0.0
24/04:30am 24.2 22.4 21.5 85 1.8 ESE 33 39 18 21 1012.2 1012.2 0.0
24/04:00am 24.1 22.2 21.4 85 1.8 ESE 33 39 18 21 1012.2 1012.2 0.0
24/03:30am 24.1 22.2 21.4 85 1.8 ESE 33 39 18 21 1012.2 1012.2 0.0
24/03:00am 24.6 22.0 21.5 83 2.1 E 37 43 20 23 1012.3 1012.3 0.0
24/02:30am 24.7 22.5 21.4 82 2.2 E 35 41 19 22 1012.6 1012.6 0.0
24/02:00am 24.9 23.1 21.6 82 2.2 E 33 41 18 22 1012.8 1012.8 0.0
24/01:30am 25.1 22.9 21.4 80 2.4 E 35 39 19 21 1012.6 1012.6 0.0
24/01:00am 25.2 23.6 21.5 80 2.5 E 32 37 17 20 1012.6 1012.6 0.0
24/12:30am 25.5 23.6 21.4 78 2.7 E 33 39 18 21 1012.7 1012.7 0.0
24/12:00am 25.4 23.9 21.7 80 2.5 E 32 39 17 21 1013.0 1013.0 0.0
 
Date/Time
CST
Temp
°C
App
Temp
°C
Dew
Point
°C
Rel
Hum
%
Delta-T
°C
Wind Press
QNH
hPa
Press
MSL
hPa
Rain since
9am
mm
Dir  Spd
km/h
Gust
km/h
Spd
kts
Gust
kts
23/11:30pm 25.4 24.0 21.9 81 2.3 E 32 35 17 19 1013.3 1013.3 0.0
23/11:00pm 25.4 24.6 22.3 83 2.1 E 30 33 16 18 1013.3 1013.3 0.0
23/10:30pm 25.5 24.7 22.4 83 2.1 E 30 35 16 19 1013.4 1013.4 0.0
23/10:00pm 25.7 24.9 22.4 82 2.2 E 30 37 16 20 1013.5 1013.5 0.0
23/09:30pm 25.6 24.4 22.3 82 2.2 E 32 35 17 19 1013.5 1013.5 0.0
23/09:00pm 25.5 24.4 22.4 83 2.1 E 32 35 17 19 1013.4 1013.4 0.0
23/08:30pm 25.4 24.6 22.3 83 2.1 E 30 33 16 18 1013.3 1013.3 0.0
23/08:00pm 25.3 24.4 22.2 83 2.1 E 30 33 16 18 1013.5 1013.5 0.0
23/07:30pm 25.2 24.8 22.3 84 1.9 ESE 28 30 15 16 1013.4 1013.4 0.0
23/07:00pm 25.0 24.4 21.9 83 2.1 ESE 28 32 15 17 1013.3 1013.3 0.0
23/06:30pm 25.0 24.4 21.9 83 2.1 ESE 28 32 15 17 1013.3 1013.3 0.0
23/06:00pm 24.9 25.3 21.8 83 2.1 ESE 22 26 12 14 1013.2 1013.2 0.0
23/05:30pm 25.1 25.3 22.0 83 2.1 ESE 24 30 13 16 1013.0 1013.0 0.0
23/05:00pm 25.3 25.3 21.6 80 2.5 ESE 24 28 13 15 1012.8 1012.8 0.0
23/04:30pm 25.2 25.0 21.3 79 2.6 ESE 24 30 13 16 1012.9 1012.9 0.0
23/04:00pm 25.6 25.1 21.5 78 2.7 ESE 26 28 14 15 1012.9 1012.9 0.0
23/03:30pm 25.6 25.5 21.5 78 2.7 ESE 24 30 13 16 1013.0 1013.0 0.0
23/03:00pm 25.3 25.2 21.4 79 2.6 ESE 24 30 13 16 1013.2 1013.2 0.0
23/02:30pm 25.7 25.3 21.6 78 2.7 ESE 26 30 14 16 1013.4 1013.4 0.0
23/02:00pm 25.6 25.0 21.3 77 2.8 ESE 26 30 14 16 1013.8 1013.8 0.0
23/01:30pm 25.2 23.8 21.1 78 2.7 ESE 30 35 16 19 1014.1 1014.1 0.0
23/01:00pm 25.2 23.3 20.9 77 2.8 ESE 32 35 17 19 1014.4 1014.4 0.0
23/12:30pm 25.0 23.0 21.1 79 2.6 ESE 33 39 18 21 1014.8 1014.8 0.0
23/12:00pm 25.1 23.0 21.0 78 2.7 ESE 33 39 18 21 1015.2 1015.2 0.0
23/11:30am 24.6 21.8 20.3 77 2.8 ESE 35 41 19 22 1015.3 1015.3 0.0
23/11:00am 24.4 21.4 19.9 76 2.9 ESE 35 43 19 23 1015.4 1015.4 0.0
23/10:30am 24.2 20.7 19.7 76 2.9 ESE 37 43 20 23 1015.7 1015.7 0.0
23/10:00am 24.1 21.4 19.6 76 2.9 ESE 33 39 18 21 1015.9 1015.9 0.0
23/09:30am 23.9 20.8 18.5 72 3.4 ESE 32 37 17 20 1015.6 1015.6 0.0
23/09:00am 24.5 21.8 17.5 65 4.4 ESE 28 33 15 18 1015.6 1015.6 0.0
23/08:30am 24.3 21.8 17.1 64 4.4 ESE 26 33 14 18 1015.4 1015.4 0.0
23/08:00am 23.7 22.0 17.2 67 4.0 SE 22 30 12 16 1015.2 1015.2 0.0
23/07:30am 22.7 20.9 16.9 70 3.6 ESE 22 33 12 18 1015.1 1015.1 0.0
23/07:00am 22.3 20.2 17.2 73 3.1 ESE 24 32 13 17 1015.0 1015.0 0.0
23/06:30am 22.5 20.1 17.4 73 3.1 ESE 26 32 14 17 1014.8 1014.8 0.0
23/06:00am 22.4 19.8 16.9 71 3.4 ESE 26 33 14 18 1014.6 1014.6 0.0
23/05:30am 22.6 19.5 16.6 69 3.7 ESE 28 32 15 17 1014.5 1014.5 0.0
23/05:00am 22.4 20.8 16.4 69 3.6 ESE 20 30 11 16 1014.6 1014.6 0.0
23/04:30am 22.8 20.5 16.6 68 3.8 SE 24 32 13 17 1014.6 1014.6 0.0
23/04:00am 22.9 19.0 16.9 69 3.7 ESE 33 41 18 22 1014.7 1014.7 0.0
23/03:30am 23.1 19.0 16.4 66 4.1 ESE 33 41 18 22 1014.8 1014.8 0.0
23/03:00am 22.7 17.2 16.7 69 3.7 ESE 41 44 22 24 1015.1 1015.1 0.0
23/02:30am 23.1 18.1 17.1 69 3.7 ESE 39 48 21 26 1015.5 1015.5 0.0
23/02:00am 22.9 19.4 17.8 73 3.2 ESE 33 39 18 21 1015.7 1015.7 0.0
23/01:30am 23.3 19.0 17.7 71 3.5 ESE 37 44 20 24 1015.5 1015.5 0.0
23/01:00am 23.5 19.5 18.4 73 3.2 ESE 37 43 20 23 1015.6 1015.6 0.0
23/12:30am 24.1 21.0 18.3 70 3.6 ESE 32 37 17 20 1015.7 1015.7 0.0
23/12:00am 23.9 20.2 18.3 71 3.5 ESE 35 43 19 23 1015.7 1015.7 0.0
 
Date/Time
CST
Temp
°C
App
Temp
°C
Dew
Point
°C
Rel
Hum
%
Delta-T
°C
Wind Press
QNH
hPa
Press
MSL
hPa
Rain since
9am
mm
Dir  Spd
km/h
Gust
km/h
Spd
kts
Gust
kts
22/11:30pm 24.2 21.1 18.4 70 3.7 ESE 32 41 17 22 1015.6 1015.6 0.0
22/11:00pm 24.5 21.6 19.3 73 3.3 ESE 33 41 18 22 1015.6 1015.6 0.0
22/10:30pm 24.7 22.3 20.0 75 3.0 ESE 32 35 17 19 1015.8 1015.8 0.0
22/10:00pm 25.3 22.9 20.3 74 3.3 ESE 33 37 18 20 1015.8 1015.8 0.0
22/09:30pm 25.5 22.9 20.7 75 3.1 E 35 39 19 21 1016.0 1016.0 0.0
22/09:00pm 25.4 23.9 20.9 76 3.0 E 30 35 16 19 1015.9 1015.9 0.0
22/08:30pm 25.5 23.7 21.2 77 2.8 E 32 37 17 20 1015.8 1015.8 0.0
22/08:00pm 25.3 24.2 21.0 77 2.8 E 28 33 15 18 1015.6 1015.6 0.0
22/07:30pm 25.3 23.8 21.0 77 2.8 E 30 35 16 19 1015.4 1015.4 0.0
22/07:00pm 24.9 23.0 20.2 75 3.1 E 30 33 16 18 1015.1 1015.1 0.0
22/06:30pm 25.0 23.2 20.3 75 3.1 E 30 33 16 18 1014.9 1014.9 0.0
22/06:00pm 24.8 23.1 19.8 74 3.2 E 28 33 15 18 1014.7 1014.7 0.0
22/05:30pm 24.9 23.0 20.2 75 3.1 ESE 30 35 16 19 1014.6 1014.6 0.0
22/05:00pm 25.3 23.6 20.5 75 3.1 ESE 30 35 16 19 1014.5 1014.5 0.0
22/04:30pm 24.7 22.6 19.8 74 3.2 ESE 30 35 16 19 1014.3 1014.3 0.0
22/04:00pm 24.9 23.5 20.4 76 2.9 ESE 28 35 15 19 1014.3 1014.3 0.0
22/03:30pm 24.9 22.6 20.2 75 3.1 ESE 32 35 17 19 1014.3 1014.3 0.0
22/03:00pm 24.5 22.0 19.8 75 3.0 ESE 32 35 17 19 1014.7 1014.7 0.0
22/02:30pm 24.7 22.4 20.2 76 2.9 ESE 32 37 17 20 1015.0 1015.0 0.0
22/02:00pm 24.4 21.7 19.7 75 3.0 ESE 33 41 18 22 1015.2 1015.2 0.0
22/01:30pm 24.2 21.0 19.5 75 3.0 ESE 35 43 19 23 1015.4 1015.4 0.0
22/01:00pm 24.0 20.2 18.9 73 3.2 ESE 37 44 20 24 1015.7 1015.7 0.0
22/12:30pm 23.8 19.8 18.4 72 3.4 ESE 37 44 20 24 1016.2 1016.2 0.0
22/12:00pm 24.0 19.3 17.7 68 3.9 ESE 39 43 21 23 1016.7 1016.7 0.0
22/11:30am 24.6 19.4 16.6 61 4.9 ESE 39 44 21 24 1017.0 1017.0 0.0
22/11:00am 24.3 19.6 15.8 59 5.1 ESE 35 44 19 24 1017.1 1017.1 0.0
22/10:30am 24.5 19.3 14.6 54 5.9 ESE 35 43 19 23 1017.2 1017.2 0.0
22/10:00am 24.7 19.6 13.6 50 6.5 ESE 33 43 18 23 1017.1 1017.1 0.0
22/09:30am 25.2 19.4 12.8 46 7.2 ESE 35 43 19 23 1017.2 1017.2 0.0
22/09:00am 24.9 20.1 12.8 47 7.0 ESE 30 39 16 21 1017.2 1017.2 0.0
22/08:30am 24.8 21.0 12.4 46 7.1 SE 24 35 13 19 1017.2 1017.2 0.0
22/08:00am 23.8 21.3 14.2 55 5.7 SE 20 28 11 15 1017.0 1017.0 0.0
22/07:30am 22.9 20.3 13.9 57 5.2 ESE 20 28 11 15 1016.7 1016.7 0.0
22/07:00am 22.5 19.1 13.6 57 5.2 ESE 24 33 13 18 1016.4 1016.4 0.0
22/06:30am 22.3 18.5 13.6 58 5.0 SE 26 35 14 19 1016.3 1016.3 0.0
22/06:00am 22.2 19.1 13.5 57 5.0 SE 22 32 12 17 1016.1 1016.1 0.0
22/05:30am 22.4 18.8 13.2 56 5.3 SE 24 33 13 18 1015.9 1015.9 0.0
22/05:00am 22.6 18.2 12.8 54 5.6 SE 28 37 15 20 1015.8 1015.8 0.0
22/04:30am 22.4 19.1 15.0 63 4.4 SE 26 33 14 18 1015.7 1015.7 0.0
22/04:00am 22.7 18.1 16.0 66 4.0 ESE 35 44 19 24 1015.7 1015.7 0.0
22/03:30am 22.3 19.3 16.8 71 3.4 SE 28 37 15 20 1015.7 1015.7 0.0
22/03:00am 22.7 18.8 16.9 70 3.6 ESE 33 43 18 23 1015.8 1015.8 0.0
22/02:30am 22.8 19.2 17.3 71 3.4 ESE 32 41 17 22 1016.1 1016.1 0.0
22/02:00am 22.8 18.8 17.7 73 3.2 ESE 35 44 19 24 1016.0 1016.0 0.0
22/01:30am 23.1 18.7 17.6 71 3.4 ESE 37 46 20 25 1016.3 1016.3 0.0
22/01:00am 23.4 19.6 18.1 72 3.3 ESE 35 50 19 27 1016.3 1016.3 0.0
22/12:30am 24.2 20.8 19.1 73 3.2 ESE 35 44 19 24 1016.3 1016.3 0.0
22/12:00am 24.5 20.9 19.3 73 3.3 E 37 43 20 23 1016.2 1016.2 0.0
 
Date/Time
CST
Temp
°C
App
Temp
°C
Dew
Point
°C
Rel
Hum
%
Delta-T
°C
Wind Press
QNH
hPa
Press
MSL
hPa
Rain since
9am
mm
Dir  Spd
km/h
Gust
km/h
Spd
kts
Gust
kts
21/11:30pm 24.7 21.1 19.3 72 3.5 E 37 41 20 22 1016.1 1016.1 0.0
21/11:00pm 24.9 21.6 19.3 71 3.6 E 35 43 19 23 1016.2 1016.2 0.0
21/10:30pm 24.8 21.6 19.4 72 3.5 E 35 39 19 21 1016.3 1016.3 0.0
21/10:00pm 24.9 21.7 19.5 72 3.5 E 35 41 19 22 1016.3 1016.3 0.0
21/09:30pm 24.8 22.6 19.6 73 3.3 E 30 35 16 19 1016.4 1016.4 0.0
21/09:00pm 24.6 22.9 19.7 74 3.2 E 28 32 15 17 1016.2 1016.2 0.0
21/08:30pm 24.8 23.0 19.6 73 3.3 E 28 32 15 17 1015.9 1015.9 0.0
21/08:00pm 24.8 22.2 19.4 72 3.5 E 32 37 17 20 1015.5 1015.5 0.0
21/07:30pm 24.8 22.5 19.4 72 3.5 E 30 35 16 19 1015.4 1015.4 0.0
21/07:00pm 24.6 21.5 18.8 70 3.7 E 33 39 18 21 1015.2 1015.2 0.0
21/06:30pm 24.8 21.4 19.0 70 3.7 E 35 41 19 22 1015.0 1015.0 0.0
21/06:00pm 24.9 20.9 17.6 64 4.6 E 35 41 19 22 1014.6 1014.6 0.0
21/05:30pm 24.9 20.7 18.1 66 4.3 ESE 37 44 20 24 1014.6 1014.6 0.0
21/05:00pm 24.7 20.8 17.9 66 4.3 ESE 35 43 19 23 1014.5 1014.5 0.0
21/04:30pm 25.0 21.6 18.9 69 3.9 ESE 35 43 19 23 1014.3 1014.3 0.0
21/04:00pm 24.9 20.5 17.6 64 4.6 ESE 37 44 20 24 1014.3 1014.3 0.0
21/03:30pm 24.5 20.3 18.0 67 4.1 ESE 37 44 20 24 1014.4 1014.4 0.0
21/03:00pm 24.8 20.0 17.5 64 4.5 ESE 39 46 21 25 1014.7 1014.7 0.0
21/02:30pm 24.6 19.1 16.8 62 4.8 ESE 41 46 22 25 1015.1 1015.1 0.0
21/02:00pm 24.6 19.3 17.3 64 4.5 ESE 41 48 22 26 1015.2 1015.2 0.0
21/01:30pm 25.2 20.3 18.2 65 4.4 ESE 41 48 22 26 1015.7 1015.7 0.0
21/01:00pm 25.2 19.3 16.6 59 5.3 ESE 43 48 23 26 1016.1 1016.1 0.0
21/12:30pm 24.8 18.6 16.0 58 5.4 ESE 43 52 23 28 1016.4 1016.4 0.0
21/12:00pm 25.0 17.9 13.5 48 6.7 ESE 43 50 23 27 1016.7 1016.7 0.0
21/11:30am 24.4 16.9 12.7 48 6.7 ESE 44 50 24 27 1016.9 1016.9 0.0
21/11:00am 25.1 17.7 12.3 45 7.3 ESE 43 52 23 28 1017.3 1017.3 0.0
21/10:30am 25.7 18.5 13.2 46 7.3 ESE 43 56 23 30 1017.5 1017.5 0.0
21/10:00am 25.5 18.6 11.7 42 7.9 ESE 39 48 21 26 1017.7 1017.7 0.0
21/09:30am 24.5 19.4 16.7 61 4.8 ESE 39 48 21 26 1017.7 1017.7 0.0
21/09:00am 24.1 19.7 16.6 63 4.6 ESE 35 44 19 24 1017.6 1017.6 0.0

Other formats

Comma delimited format used in spreadsheet applications
http://www.bom.gov.au/fwo/IDD60801/IDD60801.94135.axf

JavaScript Object Notation format (JSON) in row-major order
http://www.bom.gov.au/fwo/IDD60801/IDD60801.94135.json

Data quality

Most of these data are generated automatically and are frequently updated. Quality checks on data are not normally performed. It is possible for incorrect values to appear. Refer to information at About Latest Weather Observations and please check the disclaimer before using these data.